sensor_id;sensor_type;location;lat;lon;timestamp;temperature;humidity
21778;DHT22;11050;52.222;20.916;2023-01-15T00:00:51;5.00;99.90
21778;DHT22;11050;52.222;20.916;2023-01-15T00:03:17;5.00;99.90
21778;DHT22;11050;52.222;20.916;2023-01-15T00:05:43;5.10;99.90
21778;DHT22;11050;52.222;20.916;2023-01-15T00:08:09;5.10;99.90
21778;DHT22;11050;52.222;20.916;2023-01-15T00:10:35;5.10;99.90
21778;DHT22;11050;52.222;20.916;2023-01-15T00:13:00;5.10;99.90
21778;DHT22;11050;52.222;20.916;2023-01-15T00:15:26;5.10;99.90
21778;DHT22;11050;52.222;20.916;2023-01-15T00:17:52;5.20;99.90
21778;DHT22;11050;52.222;20.916;2023-01-15T00:20:18;5.10;99.90
21778;DHT22;11050;52.222;20.916;2023-01-15T00:22:44;5.20;99.90
21778;DHT22;11050;52.222;20.916;2023-01-15T00:25:10;5.10;99.90
21778;DHT22;11050;52.222;20.916;2023-01-15T00:27:54;5.20;99.90
21778;DHT22;11050;52.222;20.916;2023-01-15T00:30:20;5.10;99.90
21778;DHT22;11050;52.222;20.916;2023-01-15T00:32:46;5.10;99.90
21778;DHT22;11050;52.222;20.916;2023-01-15T00:35:17;5.10;99.90
21778;DHT22;11050;52.222;20.916;2023-01-15T00:37:45;5.10;99.90
21778;DHT22;11050;52.222;20.916;2023-01-15T00:40:12;5.10;99.90
21778;DHT22;11050;52.222;20.916;2023-01-15T00:42:39;5.10;99.90
21778;DHT22;11050;52.222;20.916;2023-01-15T00:45:06;5.00;99.90
21778;DHT22;11050;52.222;20.916;2023-01-15T00:47:41;5.00;99.90
21778;DHT22;11050;52.222;20.916;2023-01-15T00:50:11;5.00;99.90
21778;DHT22;11050;52.222;20.916;2023-01-15T00:52:39;5.00;99.90
21778;DHT22;11050;52.222;20.916;2023-01-15T00:55:06;5.00;99.90
21778;DHT22;11050;52.222;20.916;2023-01-15T00:57:33;5.00;99.90
21778;DHT22;11050;52.222;20.916;2023-01-15T00:59:59;4.90;99.90
21778;DHT22;11050;52.222;20.916;2023-01-15T01:02:25;4.90;99.90
21778;DHT22;11050;52.222;20.916;2023-01-15T01:04:51;4.90;99.90
21778;DHT22;11050;52.222;20.916;2023-01-15T01:07:16;4.90;99.90
21778;DHT22;11050;52.222;20.916;2023-01-15T01:09:43;4.80;99.90
21778;DHT22;11050;52.222;20.916;2023-01-15T01:12:09;4.80;99.90
21778;DHT22;11050;52.222;20.916;2023-01-15T01:14:36;4.80;99.90
21778;DHT22;11050;52.222;20.916;2023-01-15T01:17:02;4.80;99.90
21778;DHT22;11050;52.222;20.916;2023-01-15T01:19:29;4.70;99.90
21778;DHT22;11050;52.222;20.916;2023-01-15T01:21:54;4.70;99.90
21778;DHT22;11050;52.222;20.916;2023-01-15T01:24:22;4.70;99.90
21778;DHT22;11050;52.222;20.916;2023-01-15T01:26:49;4.70;99.90
21778;DHT22;11050;52.222;20.916;2023-01-15T01:29:18;4.70;99.90
21778;DHT22;11050;52.222;20.916;2023-01-15T01:31:46;4.70;99.90
21778;DHT22;11050;52.222;20.916;2023-01-15T01:34:13;4.70;99.90
21778;DHT22;11050;52.222;20.916;2023-01-15T01:36:41;4.70;99.90
21778;DHT22;11050;52.222;20.916;2023-01-15T01:39:13;4.70;99.90
21778;DHT22;11050;52.222;20.916;2023-01-15T01:41:40;4.70;99.90
21778;DHT22;11050;52.222;20.916;2023-01-15T01:46:58;4.60;99.90
21778;DHT22;11050;52.222;20.916;2023-01-15T01:49:25;4.60;99.90
21778;DHT22;11050;52.222;20.916;2023-01-15T01:52:01;4.60;99.90
21778;DHT22;11050;52.222;20.916;2023-01-15T01:54:32;4.60;99.90
21778;DHT22;11050;52.222;20.916;2023-01-15T01:57:00;4.60;99.90
21778;DHT22;11050;52.222;20.916;2023-01-15T01:59:28;4.60;99.90
21778;DHT22;11050;52.222;20.916;2023-01-15T02:01:54;4.60;99.90
21778;DHT22;11050;52.222;20.916;2023-01-15T02:04:21;4.50;99.90
21778;DHT22;11050;52.222;20.916;2023-01-15T02:06:51;4.50;99.90
21778;DHT22;11050;52.222;20.916;2023-01-15T02:09:16;4.50;99.90
21778;DHT22;11050;52.222;20.916;2023-01-15T02:11:42;4.50;99.90
21778;DHT22;11050;52.222;20.916;2023-01-15T02:14:38;4.40;99.90
21778;DHT22;11050;52.222;20.916;2023-01-15T02:20:25;4.40;99.90
21778;DHT22;11050;52.222;20.916;2023-01-15T02:23:06;4.40;99.90
21778;DHT22;11050;52.222;20.916;2023-01-15T02:26:19;4.50;99.90
21778;DHT22;11050;52.222;20.916;2023-01-15T02:28:54;4.40;99.90
21778;DHT22;11050;52.222;20.916;2023-01-15T02:31:27;4.40;99.90
21778;DHT22;11050;52.222;20.916;2023-01-15T02:34:08;4.50;99.90
21778;DHT22;11050;52.222;20.916;2023-01-15T02:36:37;4.50;99.90
21778;DHT22;11050;52.222;20.916;2023-01-15T02:39:11;4.50;99.90
21778;DHT22;11050;52.222;20.916;2023-01-15T02:41:46;4.50;99.90
21778;DHT22;11050;52.222;20.916;2023-01-15T02:44:19;4.50;99.90
21778;DHT22;11050;52.222;20.916;2023-01-15T02:46:47;4.50;99.90
21778;DHT22;11050;52.222;20.916;2023-01-15T02:49:17;4.50;99.90
21778;DHT22;11050;52.222;20.916;2023-01-15T02:51:52;4.50;99.90
21778;DHT22;11050;52.222;20.916;2023-01-15T02:54:26;4.50;99.90
21778;DHT22;11050;52.222;20.916;2023-01-15T02:56:56;4.50;99.90
21778;DHT22;11050;52.222;20.916;2023-01-15T02:59:29;4.50;99.90
21778;DHT22;11050;52.222;20.916;2023-01-15T03:02:04;4.50;99.90
21778;DHT22;11050;52.222;20.916;2023-01-15T03:04:52;4.50;99.90
21778;DHT22;11050;52.222;20.916;2023-01-15T03:07:45;4.40;99.90
21778;DHT22;11050;52.222;20.916;2023-01-15T03:10:16;4.50;99.90
21778;DHT22;11050;52.222;20.916;2023-01-15T03:12:59;4.50;99.90
21778;DHT22;11050;52.222;20.916;2023-01-15T03:18:32;4.40;99.90
21778;DHT22;11050;52.222;20.916;2023-01-15T03:21:07;4.50;99.90
21778;DHT22;11050;52.222;20.916;2023-01-15T03:23:37;4.50;99.90
21778;DHT22;11050;52.222;20.916;2023-01-15T03:26:06;4.50;99.90
21778;DHT22;11050;52.222;20.916;2023-01-15T03:28:34;4.50;99.90
21778;DHT22;11050;52.222;20.916;2023-01-15T03:31:03;4.50;99.90
21778;DHT22;11050;52.222;20.916;2023-01-15T03:33:29;4.50;99.90
21778;DHT22;11050;52.222;20.916;2023-01-15T03:35:57;4.50;99.90
21778;DHT22;11050;52.222;20.916;2023-01-15T03:38:33;4.50;99.90
21778;DHT22;11050;52.222;20.916;2023-01-15T03:41:14;4.50;99.90
21778;DHT22;11050;52.222;20.916;2023-01-15T03:44:35;4.50;99.90
21778;DHT22;11050;52.222;20.916;2023-01-15T03:52:52;4.50;99.90
21778;DHT22;11050;52.222;20.916;2023-01-15T03:58:20;4.50;99.90
21778;DHT22;11050;52.222;20.916;2023-01-15T04:00:54;4.50;99.90
21778;DHT22;11050;52.222;20.916;2023-01-15T04:03:25;4.50;99.90
21778;DHT22;11050;52.222;20.916;2023-01-15T04:05:55;4.50;99.90
21778;DHT22;11050;52.222;20.916;2023-01-15T04:08:25;4.50;99.90
21778;DHT22;11050;52.222;20.916;2023-01-15T04:10:59;4.50;99.90
21778;DHT22;11050;52.222;20.916;2023-01-15T04:13:27;4.40;99.90
21778;DHT22;11050;52.222;20.916;2023-01-15T04:15:54;4.50;99.90
21778;DHT22;11050;52.222;20.916;2023-01-15T04:18:21;4.50;99.90
21778;DHT22;11050;52.222;20.916;2023-01-15T04:20:47;4.50;99.90
21778;DHT22;11050;52.222;20.916;2023-01-15T04:23:14;4.50;99.90
21778;DHT22;11050;52.222;20.916;2023-01-15T04:25:40;4.40;99.90
21778;DHT22;11050;52.222;20.916;2023-01-15T04:28:06;4.50;99.90
21778;DHT22;11050;52.222;20.916;2023-01-15T04:30:34;4.50;99.90
21778;DHT22;11050;52.222;20.916;2023-01-15T04:33:00;4.40;99.90
21778;DHT22;11050;52.222;20.916;2023-01-15T04:35:26;4.40;99.90
21778;DHT22;11050;52.222;20.916;2023-01-15T04:37:57;4.40;99.90
21778;DHT22;11050;52.222;20.916;2023-01-15T04:40:24;4.40;99.90
21778;DHT22;11050;52.222;20.916;2023-01-15T04:43:13;4.40;99.90
21778;DHT22;11050;52.222;20.916;2023-01-15T04:45:57;4.40;99.90
21778;DHT22;11050;52.222;20.916;2023-01-15T04:48:24;4.40;99.90
21778;DHT22;11050;52.222;20.916;2023-01-15T04:50:50;4.40;99.90
21778;DHT22;11050;52.222;20.916;2023-01-15T04:53:16;4.40;99.90
21778;DHT22;11050;52.222;20.916;2023-01-15T04:55:42;4.40;99.90
21778;DHT22;11050;52.222;20.916;2023-01-15T04:58:08;4.40;99.90
21778;DHT22;11050;52.222;20.916;2023-01-15T05:00:33;4.50;99.90
21778;DHT22;11050;52.222;20.916;2023-01-15T05:02:59;4.40;99.90
21778;DHT22;11050;52.222;20.916;2023-01-15T05:05:25;4.50;99.90
21778;DHT22;11050;52.222;20.916;2023-01-15T05:07:51;4.50;99.90
21778;DHT22;11050;52.222;20.916;2023-01-15T05:10:16;4.50;99.90
21778;DHT22;11050;52.222;20.916;2023-01-15T05:12:42;4.60;99.90
21778;DHT22;11050;52.222;20.916;2023-01-15T05:15:08;4.60;99.90
21778;DHT22;11050;52.222;20.916;2023-01-15T05:17:34;4.60;99.90
21778;DHT22;11050;52.222;20.916;2023-01-15T05:20:00;4.70;99.90
21778;DHT22;11050;52.222;20.916;2023-01-15T05:22:26;4.70;99.90
21778;DHT22;11050;52.222;20.916;2023-01-15T05:24:51;4.70;99.90
21778;DHT22;11050;52.222;20.916;2023-01-15T05:27:17;4.80;99.90
21778;DHT22;11050;52.222;20.916;2023-01-15T05:29:43;4.80;99.90
21778;DHT22;11050;52.222;20.916;2023-01-15T05:32:08;4.90;99.90
21778;DHT22;11050;52.222;20.916;2023-01-15T05:34:34;4.90;99.90
21778;DHT22;11050;52.222;20.916;2023-01-15T05:37:00;4.90;99.90
21778;DHT22;11050;52.222;20.916;2023-01-15T05:39:26;4.90;99.90
21778;DHT22;11050;52.222;20.916;2023-01-15T05:41:52;4.90;99.90
21778;DHT22;11050;52.222;20.916;2023-01-15T05:44:21;4.90;99.90
21778;DHT22;11050;52.222;20.916;2023-01-15T05:46:50;5.00;99.90
21778;DHT22;11050;52.222;20.916;2023-01-15T05:49:20;5.00;99.90
21778;DHT22;11050;52.222;20.916;2023-01-15T05:51:47;5.00;99.90
21778;DHT22;11050;52.222;20.916;2023-01-15T05:54:16;5.10;99.90
21778;DHT22;11050;52.222;20.916;2023-01-15T05:56:44;5.10;99.90
21778;DHT22;11050;52.222;20.916;2023-01-15T05:59:11;5.10;99.90
21778;DHT22;11050;52.222;20.916;2023-01-15T06:01:38;5.10;99.90
21778;DHT22;11050;52.222;20.916;2023-01-15T06:04:05;5.10;99.90
21778;DHT22;11050;52.222;20.916;2023-01-15T06:06:32;5.10;99.90
21778;DHT22;11050;52.222;20.916;2023-01-15T06:08:58;5.20;99.90
21778;DHT22;11050;52.222;20.916;2023-01-15T06:11:24;5.20;99.90
21778;DHT22;11050;52.222;20.916;2023-01-15T06:13:50;5.20;99.90
21778;DHT22;11050;52.222;20.916;2023-01-15T06:16:16;5.20;99.90
21778;DHT22;11050;52.222;20.916;2023-01-15T06:18:43;5.20;99.90
21778;DHT22;11050;52.222;20.916;2023-01-15T06:21:11;5.20;99.90
21778;DHT22;11050;52.222;20.916;2023-01-15T06:23:38;5.10;99.90
21778;DHT22;11050;52.222;20.916;2023-01-15T06:26:10;5.10;99.90
21778;DHT22;11050;52.222;20.916;2023-01-15T06:28:41;5.10;99.90
21778;DHT22;11050;52.222;20.916;2023-01-15T06:31:14;5.10;99.90
21778;DHT22;11050;52.222;20.916;2023-01-15T06:33:42;5.10;99.90
21778;DHT22;11050;52.222;20.916;2023-01-15T06:36:14;5.10;99.90
21778;DHT22;11050;52.222;20.916;2023-01-15T06:38:42;5.10;99.90
21778;DHT22;11050;52.222;20.916;2023-01-15T06:41:13;5.10;99.90
21778;DHT22;11050;52.222;20.916;2023-01-15T06:43:59;5.10;99.90
21778;DHT22;11050;52.222;20.916;2023-01-15T06:46:47;5.10;99.90
21778;DHT22;11050;52.222;20.916;2023-01-15T06:49:34;5.10;99.90
21778;DHT22;11050;52.222;20.916;2023-01-15T06:52:01;5.10;99.90
21778;DHT22;11050;52.222;20.916;2023-01-15T06:54:29;5.10;99.90
21778;DHT22;11050;52.222;20.916;2023-01-15T06:56:54;5.10;99.90
21778;DHT22;11050;52.222;20.916;2023-01-15T06:59:20;5.10;99.90
21778;DHT22;11050;52.222;20.916;2023-01-15T07:01:46;5.10;99.90
21778;DHT22;11050;52.222;20.916;2023-01-15T07:04:13;5.10;99.90
21778;DHT22;11050;52.222;20.916;2023-01-15T07:06:39;5.00;99.90
21778;DHT22;11050;52.222;20.916;2023-01-15T07:09:05;5.00;99.90
21778;DHT22;11050;52.222;20.916;2023-01-15T07:11:31;4.90;99.90
21778;DHT22;11050;52.222;20.916;2023-01-15T07:13:57;4.90;99.90
21778;DHT22;11050;52.222;20.916;2023-01-15T07:16:33;4.90;99.90
21778;DHT22;11050;52.222;20.916;2023-01-15T07:19:00;4.90;99.90
21778;DHT22;11050;52.222;20.916;2023-01-15T07:21:27;4.90;99.90
21778;DHT22;11050;52.222;20.916;2023-01-15T07:23:53;4.90;99.90
21778;DHT22;11050;52.222;20.916;2023-01-15T07:26:22;4.90;99.90
21778;DHT22;11050;52.222;20.916;2023-01-15T07:28:48;4.90;99.90
21778;DHT22;11050;52.222;20.916;2023-01-15T07:31:14;4.90;99.90
21778;DHT22;11050;52.222;20.916;2023-01-15T07:33:40;4.90;99.90
21778;DHT22;11050;52.222;20.916;2023-01-15T07:36:06;4.90;99.90
21778;DHT22;11050;52.222;20.916;2023-01-15T07:38:32;4.90;99.90
21778;DHT22;11050;52.222;20.916;2023-01-15T07:40:58;4.90;99.90
21778;DHT22;11050;52.222;20.916;2023-01-15T07:43:43;4.90;99.90
21778;DHT22;11050;52.222;20.916;2023-01-15T07:46:27;4.90;99.90
21778;DHT22;11050;52.222;20.916;2023-01-15T07:49:13;5.00;99.90
21778;DHT22;11050;52.222;20.916;2023-01-15T07:51:58;5.00;99.90
21778;DHT22;11050;52.222;20.916;2023-01-15T07:54:23;5.00;99.90
21778;DHT22;11050;52.222;20.916;2023-01-15T07:56:50;5.10;99.90
21778;DHT22;11050;52.222;20.916;2023-01-15T07:59:18;5.10;99.90
21778;DHT22;11050;52.222;20.916;2023-01-15T08:01:44;5.10;99.90
21778;DHT22;11050;52.222;20.916;2023-01-15T08:04:10;5.10;99.90
21778;DHT22;11050;52.222;20.916;2023-01-15T08:06:36;5.20;99.90
21778;DHT22;11050;52.222;20.916;2023-01-15T08:09:02;5.20;99.90
21778;DHT22;11050;52.222;20.916;2023-01-15T08:11:28;5.20;99.90
21778;DHT22;11050;52.222;20.916;2023-01-15T08:14:13;5.20;99.90
21778;DHT22;11050;52.222;20.916;2023-01-15T08:16:57;5.30;99.90
21778;DHT22;11050;52.222;20.916;2023-01-15T08:19:23;5.30;99.90
21778;DHT22;11050;52.222;20.916;2023-01-15T08:21:50;5.40;99.90
21778;DHT22;11050;52.222;20.916;2023-01-15T08:24:16;5.40;99.90
21778;DHT22;11050;52.222;20.916;2023-01-15T08:26:42;5.40;99.90
21778;DHT22;11050;52.222;20.916;2023-01-15T08:29:08;5.40;99.90
21778;DHT22;11050;52.222;20.916;2023-01-15T08:31:34;5.50;99.90
21778;DHT22;11050;52.222;20.916;2023-01-15T08:34:01;5.50;99.90
21778;DHT22;11050;52.222;20.916;2023-01-15T08:36:27;5.50;99.90
21778;DHT22;11050;52.222;20.916;2023-01-15T08:38:53;5.50;99.90
21778;DHT22;11050;52.222;20.916;2023-01-15T08:41:19;5.50;99.90
21778;DHT22;11050;52.222;20.916;2023-01-15T08:43:44;5.60;99.90
21778;DHT22;11050;52.222;20.916;2023-01-15T08:46:10;5.60;99.90
21778;DHT22;11050;52.222;20.916;2023-01-15T08:48:37;5.60;99.90
21778;DHT22;11050;52.222;20.916;2023-01-15T08:51:04;5.60;99.90
21778;DHT22;11050;52.222;20.916;2023-01-15T08:53:31;5.70;99.90
21778;DHT22;11050;52.222;20.916;2023-01-15T08:55:57;5.70;99.90
21778;DHT22;11050;52.222;20.916;2023-01-15T08:58:22;5.70;99.90
21778;DHT22;11050;52.222;20.916;2023-01-15T09:00:48;5.80;99.90
21778;DHT22;11050;52.222;20.916;2023-01-15T09:03:14;5.70;99.90
21778;DHT22;11050;52.222;20.916;2023-01-15T09:05:40;5.80;99.90
21778;DHT22;11050;52.222;20.916;2023-01-15T09:08:06;5.80;99.90
21778;DHT22;11050;52.222;20.916;2023-01-15T09:10:32;5.80;99.90
21778;DHT22;11050;52.222;20.916;2023-01-15T09:13:00;5.80;99.90
21778;DHT22;11050;52.222;20.916;2023-01-15T09:15:30;5.80;99.90
21778;DHT22;11050;52.222;20.916;2023-01-15T09:17:58;5.80;99.90
21778;DHT22;11050;52.222;20.916;2023-01-15T09:20:25;5.80;99.90
21778;DHT22;11050;52.222;20.916;2023-01-15T09:22:51;5.80;99.90
21778;DHT22;11050;52.222;20.916;2023-01-15T09:25:17;5.80;99.90
21778;DHT22;11050;52.222;20.916;2023-01-15T09:27:45;5.80;99.90
21778;DHT22;11050;52.222;20.916;2023-01-15T09:30:16;5.80;99.90
21778;DHT22;11050;52.222;20.916;2023-01-15T09:32:44;5.80;99.90
21778;DHT22;11050;52.222;20.916;2023-01-15T09:35:10;5.80;99.90
21778;DHT22;11050;52.222;20.916;2023-01-15T09:37:36;5.80;99.90
21778;DHT22;11050;52.222;20.916;2023-01-15T09:40:02;5.80;99.90
21778;DHT22;11050;52.222;20.916;2023-01-15T09:42:44;5.80;99.90
21778;DHT22;11050;52.222;20.916;2023-01-15T09:46:24;5.80;99.90
21778;DHT22;11050;52.222;20.916;2023-01-15T09:49:29;5.70;99.90
21778;DHT22;11050;52.222;20.916;2023-01-15T09:55:43;5.70;99.90
21778;DHT22;11050;52.222;20.916;2023-01-15T09:58:13;5.70;99.90
21778;DHT22;11050;52.222;20.916;2023-01-15T10:00:45;5.70;99.90
21778;DHT22;11050;52.222;20.916;2023-01-15T10:03:27;5.70;99.90
21778;DHT22;11050;52.222;20.916;2023-01-15T10:06:16;5.70;99.90
21778;DHT22;11050;52.222;20.916;2023-01-15T10:08:49;5.70;99.90
21778;DHT22;11050;52.222;20.916;2023-01-15T10:13:55;5.70;99.90
21778;DHT22;11050;52.222;20.916;2023-01-15T10:16:28;5.60;99.90
21778;DHT22;11050;52.222;20.916;2023-01-15T10:18:59;5.60;99.90
21778;DHT22;11050;52.222;20.916;2023-01-15T10:24:42;5.70;99.90
21778;DHT22;11050;52.222;20.916;2023-01-15T10:27:22;5.70;99.90
21778;DHT22;11050;52.222;20.916;2023-01-15T10:30:04;5.70;99.90
21778;DHT22;11050;52.222;20.916;2023-01-15T10:38:32;5.80;99.90
21778;DHT22;11050;52.222;20.916;2023-01-15T10:41:17;5.80;99.90
21778;DHT22;11050;52.222;20.916;2023-01-15T10:46:39;5.90;99.90
21778;DHT22;11050;52.222;20.916;2023-01-15T10:49:16;5.90;99.90
21778;DHT22;11050;52.222;20.916;2023-01-15T10:51:51;5.90;99.90
21778;DHT22;11050;52.222;20.916;2023-01-15T10:54:25;6.00;99.90
21778;DHT22;11050;52.222;20.916;2023-01-15T10:57:20;6.00;99.90
21778;DHT22;11050;52.222;20.916;2023-01-15T11:00:03;6.00;99.90
21778;DHT22;11050;52.222;20.916;2023-01-15T11:02:33;6.00;99.90
21778;DHT22;11050;52.222;20.916;2023-01-15T11:05:22;6.00;99.90
21778;DHT22;11050;52.222;20.916;2023-01-15T11:07:50;6.10;99.90
21778;DHT22;11050;52.222;20.916;2023-01-15T11:10:20;6.10;99.90
21778;DHT22;11050;52.222;20.916;2023-01-15T11:12:54;6.10;99.90
21778;DHT22;11050;52.222;20.916;2023-01-15T11:15:46;6.20;99.90
21778;DHT22;11050;52.222;20.916;2023-01-15T11:18:34;6.20;99.90
21778;DHT22;11050;52.222;20.916;2023-01-15T11:21:24;6.20;99.90
21778;DHT22;11050;52.222;20.916;2023-01-15T11:23:54;6.20;99.90
21778;DHT22;11050;52.222;20.916;2023-01-15T11:26:27;6.30;99.90
21778;DHT22;11050;52.222;20.916;2023-01-15T11:28:56;6.30;99.90
21778;DHT22;11050;52.222;20.916;2023-01-15T11:31:35;6.40;99.90
21778;DHT22;11050;52.222;20.916;2023-01-15T11:34:15;6.40;99.90
21778;DHT22;11050;52.222;20.916;2023-01-15T11:36:45;6.40;99.90
21778;DHT22;11050;52.222;20.916;2023-01-15T11:39:25;6.40;99.90
21778;DHT22;11050;52.222;20.916;2023-01-15T11:42:05;6.40;99.90
21778;DHT22;11050;52.222;20.916;2023-01-15T11:44:58;6.40;99.90
21778;DHT22;11050;52.222;20.916;2023-01-15T11:47:53;6.30;99.90
21778;DHT22;11050;52.222;20.916;2023-01-15T11:50:59;6.30;99.90
21778;DHT22;11050;52.222;20.916;2023-01-15T11:53:33;6.30;99.90
21778;DHT22;11050;52.222;20.916;2023-01-15T11:56:05;6.40;99.90
21778;DHT22;11050;52.222;20.916;2023-01-15T11:58:49;6.40;99.90
21778;DHT22;11050;52.222;20.916;2023-01-15T12:01:33;6.40;99.90
21778;DHT22;11050;52.222;20.916;2023-01-15T12:04:21;6.30;99.90
21778;DHT22;11050;52.222;20.916;2023-01-15T12:07:12;6.30;99.90
21778;DHT22;11050;52.222;20.916;2023-01-15T12:15:51;6.40;99.90
21778;DHT22;11050;52.222;20.916;2023-01-15T12:21:47;6.40;99.90
21778;DHT22;11050;52.222;20.916;2023-01-15T12:36:17;6.50;99.90
21778;DHT22;11050;52.222;20.916;2023-01-15T12:39:02;6.50;99.90
21778;DHT22;11050;52.222;20.916;2023-01-15T12:41:39;6.60;99.90
21778;DHT22;11050;52.222;20.916;2023-01-15T12:50:46;6.80;99.90
21778;DHT22;11050;52.222;20.916;2023-01-15T12:56:01;7.00;99.90
21778;DHT22;11050;52.222;20.916;2023-01-15T13:01:33;7.10;99.90
21778;DHT22;11050;52.222;20.916;2023-01-15T13:04:27;7.10;99.90
21778;DHT22;11050;52.222;20.916;2023-01-15T13:07:03;7.10;99.90
21778;DHT22;11050;52.222;20.916;2023-01-15T13:12:20;7.30;99.90
21778;DHT22;11050;52.222;20.916;2023-01-15T13:14:46;7.40;99.90
21778;DHT22;11050;52.222;20.916;2023-01-15T13:20:27;7.40;99.90
21778;DHT22;11050;52.222;20.916;2023-01-15T13:29:02;7.50;99.90
21778;DHT22;11050;52.222;20.916;2023-01-15T13:37:28;7.50;99.90
21778;DHT22;11050;52.222;20.916;2023-01-15T13:40:12;7.50;99.90
21778;DHT22;11050;52.222;20.916;2023-01-15T13:42:45;7.60;99.90
21778;DHT22;11050;52.222;20.916;2023-01-15T13:47:47;7.60;99.90
21778;DHT22;11050;52.222;20.916;2023-01-15T13:50:18;7.60;99.90
21778;DHT22;11050;52.222;20.916;2023-01-15T13:53:00;7.60;99.90
21778;DHT22;11050;52.222;20.916;2023-01-15T13:55:42;7.70;99.90
21778;DHT22;11050;52.222;20.916;2023-01-15T13:58:31;7.60;99.90
21778;DHT22;11050;52.222;20.916;2023-01-15T14:06:37;7.70;99.90
21778;DHT22;11050;52.222;20.916;2023-01-15T14:09:10;7.70;99.90
21778;DHT22;11050;52.222;20.916;2023-01-15T14:26:30;7.80;99.90
21778;DHT22;11050;52.222;20.916;2023-01-15T14:35:21;7.80;99.90
21778;DHT22;11050;52.222;20.916;2023-01-15T14:37:55;7.80;99.90
21778;DHT22;11050;52.222;20.916;2023-01-15T14:40:31;7.70;99.90
21778;DHT22;11050;52.222;20.916;2023-01-15T14:43:07;7.80;99.90
21778;DHT22;11050;52.222;20.916;2023-01-15T14:45:44;7.70;99.90
21778;DHT22;11050;52.222;20.916;2023-01-15T14:48:19;7.80;99.90
21778;DHT22;11050;52.222;20.916;2023-01-15T14:51:09;7.80;99.90
21778;DHT22;11050;52.222;20.916;2023-01-15T14:53:51;7.80;99.90
21778;DHT22;11050;52.222;20.916;2023-01-15T14:56:22;7.80;99.90
21778;DHT22;11050;52.222;20.916;2023-01-15T15:01:50;7.80;99.90
21778;DHT22;11050;52.222;20.916;2023-01-15T15:07:09;7.80;99.90
21778;DHT22;11050;52.222;20.916;2023-01-15T15:09:41;7.80;99.90
21778;DHT22;11050;52.222;20.916;2023-01-15T15:18:16;7.90;99.90
21778;DHT22;11050;52.222;20.916;2023-01-15T15:21:17;7.90;99.90
21778;DHT22;11050;52.222;20.916;2023-01-15T15:24:04;7.90;99.90
21778;DHT22;11050;52.222;20.916;2023-01-15T15:26:33;7.90;99.90
21778;DHT22;11050;52.222;20.916;2023-01-15T15:34:29;7.90;99.90
21778;DHT22;11050;52.222;20.916;2023-01-15T15:36:59;7.90;99.90
21778;DHT22;11050;52.222;20.916;2023-01-15T15:39:35;7.90;99.90
21778;DHT22;11050;52.222;20.916;2023-01-15T15:42:34;7.90;99.90
21778;DHT22;11050;52.222;20.916;2023-01-15T15:45:22;7.90;99.90
21778;DHT22;11050;52.222;20.916;2023-01-15T15:48:21;7.90;99.90
21778;DHT22;11050;52.222;20.916;2023-01-15T15:51:43;7.90;99.90
21778;DHT22;11050;52.222;20.916;2023-01-15T15:54:26;7.90;99.90
21778;DHT22;11050;52.222;20.916;2023-01-15T15:59:46;7.90;99.90
21778;DHT22;11050;52.222;20.916;2023-01-15T16:04:57;7.90;99.90
21778;DHT22;11050;52.222;20.916;2023-01-15T16:07:31;7.90;99.90
21778;DHT22;11050;52.222;20.916;2023-01-15T16:12:42;7.80;99.90
21778;DHT22;11050;52.222;20.916;2023-01-15T16:15:17;7.80;99.90
21778;DHT22;11050;52.222;20.916;2023-01-15T16:17:45;7.80;99.90
21778;DHT22;11050;52.222;20.916;2023-01-15T16:20:13;7.80;99.90
21778;DHT22;11050;52.222;20.916;2023-01-15T16:22:53;7.70;99.90
21778;DHT22;11050;52.222;20.916;2023-01-15T16:25:40;7.70;99.90
21778;DHT22;11050;52.222;20.916;2023-01-15T16:28:24;7.60;99.90
21778;DHT22;11050;52.222;20.916;2023-01-15T16:31:00;7.60;99.90
21778;DHT22;11050;52.222;20.916;2023-01-15T16:33:29;7.60;99.90
21778;DHT22;11050;52.222;20.916;2023-01-15T16:35:59;7.50;99.90
21778;DHT22;11050;52.222;20.916;2023-01-15T16:38:30;7.50;99.90
21778;DHT22;11050;52.222;20.916;2023-01-15T16:40:59;7.50;99.90
21778;DHT22;11050;52.222;20.916;2023-01-15T16:43:26;7.40;99.90
21778;DHT22;11050;52.222;20.916;2023-01-15T16:46:15;7.40;99.90
21778;DHT22;11050;52.222;20.916;2023-01-15T16:48:44;7.30;99.90
21778;DHT22;11050;52.222;20.916;2023-01-15T16:51:33;7.30;99.90
21778;DHT22;11050;52.222;20.916;2023-01-15T16:54:02;7.20;99.90
21778;DHT22;11050;52.222;20.916;2023-01-15T16:56:51;7.10;99.90
21778;DHT22;11050;52.222;20.916;2023-01-15T17:04:37;6.90;99.90
21778;DHT22;11050;52.222;20.916;2023-01-15T17:07:06;6.80;99.90
21778;DHT22;11050;52.222;20.916;2023-01-15T17:09:47;6.70;99.90
21778;DHT22;11050;52.222;20.916;2023-01-15T17:12:38;6.60;99.90
21778;DHT22;11050;52.222;20.916;2023-01-15T17:17:44;6.50;99.90
21778;DHT22;11050;52.222;20.916;2023-01-15T17:20:13;6.50;99.90
21778;DHT22;11050;52.222;20.916;2023-01-15T17:22:41;6.50;99.90
21778;DHT22;11050;52.222;20.916;2023-01-15T17:25:23;6.40;99.90
21778;DHT22;11050;52.222;20.916;2023-01-15T17:27:53;6.40;99.90
21778;DHT22;11050;52.222;20.916;2023-01-15T17:30:20;6.40;99.90
21778;DHT22;11050;52.222;20.916;2023-01-15T17:32:47;6.30;99.90
21778;DHT22;11050;52.222;20.916;2023-01-15T17:35:24;6.30;99.90
21778;DHT22;11050;52.222;20.916;2023-01-15T17:37:53;6.30;99.90
21778;DHT22;11050;52.222;20.916;2023-01-15T17:40:19;6.30;99.90
21778;DHT22;11050;52.222;20.916;2023-01-15T17:42:46;6.30;99.90
21778;DHT22;11050;52.222;20.916;2023-01-15T17:47:52;6.20;99.90
21778;DHT22;11050;52.222;20.916;2023-01-15T17:50:18;6.20;99.90
21778;DHT22;11050;52.222;20.916;2023-01-15T17:52:45;6.20;99.90
21778;DHT22;11050;52.222;20.916;2023-01-15T17:55:17;6.20;99.90
21778;DHT22;11050;52.222;20.916;2023-01-15T17:58:04;6.20;99.90
21778;DHT22;11050;52.222;20.916;2023-01-15T18:00:49;6.10;99.90
21778;DHT22;11050;52.222;20.916;2023-01-15T18:03:34;6.20;99.90
21778;DHT22;11050;52.222;20.916;2023-01-15T18:06:20;6.10;99.90
21778;DHT22;11050;52.222;20.916;2023-01-15T18:08:51;6.10;99.90
21778;DHT22;11050;52.222;20.916;2023-01-15T18:11:20;6.10;99.90
21778;DHT22;11050;52.222;20.916;2023-01-15T18:13:46;6.10;99.90
21778;DHT22;11050;52.222;20.916;2023-01-15T18:16:12;6.10;99.90
21778;DHT22;11050;52.222;20.916;2023-01-15T18:18:38;6.00;99.90
21778;DHT22;11050;52.222;20.916;2023-01-15T18:21:03;6.00;99.90
21778;DHT22;11050;52.222;20.916;2023-01-15T18:23:30;6.00;99.90
21778;DHT22;11050;52.222;20.916;2023-01-15T18:26:02;6.00;99.90
21778;DHT22;11050;52.222;20.916;2023-01-15T18:28:31;6.00;99.90
21778;DHT22;11050;52.222;20.916;2023-01-15T18:31:01;6.00;99.90
21778;DHT22;11050;52.222;20.916;2023-01-15T18:33:28;6.00;99.90
21778;DHT22;11050;52.222;20.916;2023-01-15T18:36:11;5.90;99.90